Time;durP1;ratioP1;P1;durP2;ratioP2;P2;SDS_P1;SDS_P2;PMS_P1;PMS_P2;Temp;Humidity;BMP_temperature;BMP_pressure;BME280_temperature;BME280_humidity;BME280_pressure;Samples;Min_cycle;Max_cycle;Signal;HPM_P1;HPM_P2
2022/10/11 00:02:31;;;;;;;11.25;6.40;;;;;;;15.80;76.99;100695.59;10390489;28;20050;-70
2022/10/11 00:07:33;;;;;;;9.32;6.03;;;;;;;15.72;77.70;100715.91;10394021;28;20679;-71
2022/10/11 00:12:35;;;;;;;9.65;7.40;;;;;;;15.58;78.13;100719.03;10414848;28;20071;-74
2022/10/11 00:17:36;;;;;;;12.63;7.28;;;;;;;15.55;77.80;100725.56;10396959;28;20045;-72
2022/10/11 00:22:39;;;;;;;9.80;7.00;;;;;;;15.41;77.97;100736.72;10392583;28;20052;-72
2022/10/11 00:27:40;;;;;;;8.30;6.45;;;;;;;15.25;78.91;100734.63;10391956;28;20159;-72
2022/10/11 00:32:42;;;;;;;8.80;6.90;;;;;;;15.24;77.89;100742.81;10391733;28;20050;-73
2022/10/11 00:37:43;;;;;;;8.48;6.35;;;;;;;15.15;77.71;100753.41;10393019;28;20055;-71
2022/10/11 00:42:44;;;;;;;8.38;5.18;;;;;;;15.05;76.04;100752.56;10396382;28;20053;-71
2022/10/11 00:47:46;;;;;;;7.72;4.18;;;;;;;15.01;74.92;100769.91;10413099;28;20060;-71
2022/10/11 00:52:54;;;;;;;9.02;3.88;;;;;;;14.91;75.09;100769.06;10400573;28;20056;-71
2022/10/11 00:57:57;;;;;;;4.43;2.88;;;;;;;14.73;74.46;100772.41;10404312;28;20060;-71
2022/10/11 01:03:00;;;;;;;13.68;4.07;;;;;;;14.68;74.73;100771.97;10413034;28;20071;-72
2022/10/11 01:08:02;;;;;;;6.10;3.15;;;;;;;14.59;74.50;100770.94;10411909;28;20045;-73
2022/10/11 01:13:31;;;;;;;5.13;1.98;;;;;;;14.58;74.64;100782.63;10414494;28;20048;-71
2022/10/11 01:19:11;;;;;;;6.55;1.90;;;;;;;14.52;74.33;100780.50;10396293;28;20049;-73
2022/10/11 01:24:33;;;;;;;3.50;1.30;;;;;;;14.44;74.36;100794.59;10403501;28;20528;-72
2022/10/11 01:29:56;;;;;;;2.35;1.38;;;;;;;14.24;74.49;100795.47;10408111;28;20048;-71
2022/10/11 01:35:25;;;;;;;4.03;1.70;;;;;;;14.20;74.16;100804.75;10403053;28;20041;-71
2022/10/11 01:40:44;;;;;;;4.10;1.10;;;;;;;14.04;73.68;100803.41;10441416;28;20059;-75
2022/10/11 01:45:50;;;;;;;4.32;1.52;;;;;;;13.98;72.68;100803.94;10472796;28;20135;-72
2022/10/11 01:50:57;;;;;;;2.40;1.20;;;;;;;13.95;72.51;100817.59;10468471;28;20062;-75
2022/10/11 01:56:20;;;;;;;5.57;1.42;;;;;;;13.94;72.28;100818.56;10464741;28;20726;-71
2022/10/11 02:01:46;;;;;;;2.13;0.98;;;;;;;13.90;70.66;100818.00;10443157;28;20666;-72
2022/10/11 02:06:57;;;;;;;3.35;1.13;;;;;;;13.82;69.90;100825.81;10444521;28;20045;-72
2022/10/11 02:12:05;;;;;;;6.30;1.30;;;;;;;13.76;68.32;100832.53;10458771;28;20037;-73
2022/10/11 02:17:11;;;;;;;2.45;1.75;;;;;;;13.67;68.70;100835.97;10485106;28;20056;-74
2022/10/11 02:22:29;;;;;;;5.85;1.40;;;;;;;13.67;69.10;100838.66;10463586;28;20159;-73
2022/10/11 02:27:35;;;;;;;5.97;1.50;;;;;;;13.63;68.59;100842.59;10475874;28;20041;-75
2022/10/11 02:32:40;;;;;;;6.18;1.55;;;;;;;13.36;69.30;100840.38;10474339;28;20048;-73
2022/10/11 02:37:49;;;;;;;6.97;1.52;;;;;;;13.39;69.20;100838.31;10487962;28;20112;-73
2022/10/11 02:43:00;;;;;;;5.60;1.42;;;;;;;13.35;68.01;100844.88;10452393;28;20045;-73
2022/10/11 02:48:03;;;;;;;5.68;1.27;;;;;;;13.31;67.92;100848.75;10416047;28;20052;-71
2022/10/11 02:53:05;;;;;;;5.10;1.45;;;;;;;13.10;65.99;100846.00;10413086;28;20045;-73
2022/10/11 02:58:07;;;;;;;9.40;1.80;;;;;;;13.07;65.43;100846.28;10402632;28;20524;-71
2022/10/11 03:03:08;;;;;;;6.20;1.85;;;;;;;12.93;65.30;100863.44;10398820;28;20049;-71
2022/10/11 03:08:12;;;;;;;5.97;1.60;;;;;;;12.95;65.13;100864.16;10400802;28;20049;-72
2022/10/11 03:13:13;;;;;;;7.37;1.70;;;;;;;12.90;65.14;100869.84;10399819;28;20072;-72
2022/10/11 03:18:19;;;;;;;6.30;1.23;;;;;;;12.81;64.66;100864.44;10431775;28;20050;-72
2022/10/11 03:23:20;;;;;;;7.20;1.55;;;;;;;12.81;65.22;100872.44;10394671;28;20277;-72
2022/10/11 03:28:22;;;;;;;4.68;1.50;;;;;;;12.76;65.23;100875.47;10394323;28;20500;-72
2022/10/11 03:33:23;;;;;;;8.80;1.70;;;;;;;12.70;64.84;100875.94;10396237;28;21393;-72
2022/10/11 03:38:25;;;;;;;5.70;1.50;;;;;;;12.68;64.31;100873.41;10394128;28;20041;-74
2022/10/11 03:43:26;;;;;;;6.03;1.55;;;;;;;12.60;64.10;100885.69;10413472;28;20037;-76
2022/10/11 03:48:28;;;;;;;6.88;2.17;;;;;;;12.54;64.25;100889.69;10433539;28;20510;-72
2022/10/11 03:53:29;;;;;;;6.05;1.50;;;;;;;12.55;64.73;100897.56;10395596;28;20053;-73
2022/10/11 03:58:30;;;;;;;5.03;1.67;;;;;;;12.53;64.08;100904.00;10404116;28;20053;-73
2022/10/11 04:03:32;;;;;;;8.95;1.60;;;;;;;12.43;64.66;100911.03;10388035;28;20061;-73
2022/10/11 04:08:33;;;;;;;6.68;1.38;;;;;;;12.36;64.50;100908.81;10394074;28;20081;-72
2022/10/11 04:13:35;;;;;;;9.90;2.22;;;;;;;12.40;64.26;100914.81;10400000;28;20065;-73
2022/10/11 04:18:36;;;;;;;6.78;1.55;;;;;;;12.36;64.20;100914.16;10396395;28;20157;-71
2022/10/11 04:23:37;;;;;;;6.07;1.42;;;;;;;12.26;64.90;100918.50;10414337;28;20129;-73
2022/10/11 04:28:39;;;;;;;5.53;1.10;;;;;;;12.24;64.74;100917.78;10429911;28;20470;-74
2022/10/11 04:33:40;;;;;;;7.18;1.20;;;;;;;12.14;64.91;100922.97;10406885;28;20850;-72
2022/10/11 04:38:41;;;;;;;6.63;1.45;;;;;;;12.09;65.44;100932.31;10399500;28;20669;-73
2022/10/11 04:43:43;;;;;;;8.23;1.88;;;;;;;12.08;65.53;100950.13;10378003;28;20426;-74
2022/10/11 04:48:45;;;;;;;10.20;1.80;;;;;;;12.05;65.29;100938.84;10384575;28;20056;-73
2022/10/11 04:53:47;;;;;;;4.43;1.40;;;;;;;11.98;65.74;100941.97;10392224;28;20103;-73
2022/10/11 04:58:52;;;;;;;7.80;1.77;;;;;;;11.95;66.04;100954.69;10392360;28;20048;-73
2022/10/11 05:03:54;;;;;;;9.32;1.52;;;;;;;11.84;65.79;100963.47;10390874;28;20052;-72
2022/10/11 05:08:55;;;;;;;10.85;1.50;;;;;;;11.77;66.15;100956.88;10394669;28;20053;-70
2022/10/11 05:13:56;;;;;;;4.68;1.27;;;;;;;11.68;66.02;100969.94;10397618;28;20053;-72
2022/10/11 05:18:58;;;;;;;6.22;1.70;;;;;;;11.72;66.45;100972.38;10392748;28;20061;-72
2022/10/11 05:23:59;;;;;;;6.60;1.77;;;;;;;11.71;66.19;100973.34;10394299;28;20052;-71
2022/10/11 05:29:01;;;;;;;10.43;1.75;;;;;;;11.65;66.44;100970.19;10402292;28;20074;-71
2022/10/11 05:34:02;;;;;;;8.57;2.10;;;;;;;11.70;66.84;100971.66;10388966;28;20509;-71
2022/10/11 05:39:04;;;;;;;6.05;1.50;;;;;;;11.67;66.11;100989.56;10388003;28;20076;-71
2022/10/11 05:44:07;;;;;;;6.55;2.13;;;;;;;11.64;66.52;100994.28;10392582;28;20044;-73
2022/10/11 05:49:08;;;;;;;6.75;2.25;;;;;;;11.66;66.37;101001.22;10403120;28;20053;-71
2022/10/11 05:54:09;;;;;;;7.10;2.05;;;;;;;11.68;65.99;101003.78;10389933;28;20054;-72
2022/10/11 05:59:11;;;;;;;7.43;2.20;;;;;;;11.61;66.41;101016.69;10394270;28;20526;-72
2022/10/11 06:04:13;;;;;;;7.53;1.83;;;;;;;11.57;67.19;101025.88;10393747;28;20049;-71
2022/10/11 06:09:15;;;;;;;5.88;1.77;;;;;;;11.90;69.91;101032.38;10410874;28;20057;-70
2022/10/11 06:14:17;;;;;;;4.47;1.90;;;;;;;12.48;65.82;101037.03;10409094;28;20076;-71
2022/10/11 06:19:18;;;;;;;6.30;1.95;;;;;;;12.46;64.28;101041.63;10391789;28;20147;-74
2022/10/11 06:24:19;;;;;;;7.68;1.98;;;;;;;12.31;64.30;101041.81;10405859;28;20052;-69
2022/10/11 06:29:21;;;;;;;8.27;1.95;;;;;;;12.27;64.24;101053.69;10383957;28;20049;-72
2022/10/11 06:34:22;;;;;;;5.47;1.58;;;;;;;12.23;64.96;101059.38;10364868;28;20056;-70
2022/10/11 06:39:24;;;;;;;4.78;2.13;;;;;;;12.31;64.94;101075.66;10384691;28;20452;-68
2022/10/11 06:44:25;;;;;;;10.82;2.22;;;;;;;12.41;63.97;101086.50;10383461;28;20531;-68
2022/10/11 06:49:27;;;;;;;7.47;2.47;;;;;;;12.52;64.78;101094.56;10382639;28;20049;-71
2022/10/11 06:54:55;;;;;;;9.82;2.17;;;;;;;12.69;63.93;101087.94;10379846;28;20041;-68
2022/10/11 06:59:56;;;;;;;5.80;1.60;;;;;;;12.81;63.35;101100.38;10385210;28;20049;-72
2022/10/11 07:04:58;;;;;;;4.68;1.33;;;;;;;12.93;63.03;101111.09;10380407;28;20057;-70
2022/10/11 07:09:59;;;;;;;5.40;1.80;;;;;;;13.05;62.65;101110.97;10398703;28;20049;-72
2022/10/11 07:15:00;;;;;;;7.80;2.17;;;;;;;13.22;61.71;101119.53;10406916;28;20072;-71
2022/10/11 07:20:02;;;;;;;7.40;1.60;;;;;;;13.31;61.62;101117.94;10384473;28;20045;-71
2022/10/11 07:25:04;;;;;;;6.35;1.63;;;;;;;13.50;60.69;101125.41;10410477;28;20049;-71
2022/10/11 07:30:06;;;;;;;7.13;2.65;;;;;;;13.68;61.01;101134.66;10401327;28;20072;-72
2022/10/11 07:35:07;;;;;;;4.50;1.98;;;;;;;13.87;59.59;101138.53;10404180;28;20053;-71
2022/10/11 07:40:10;;;;;;;5.85;1.92;;;;;;;14.01;60.01;101140.94;10406350;28;20048;-71
2022/10/11 07:45:11;;;;;;;7.28;2.00;;;;;;;14.12;59.34;101137.38;10403880;28;20067;-71
2022/10/11 07:50:13;;;;;;;11.35;2.30;;;;;;;14.26;58.39;101139.81;10413854;28;20497;-71
2022/10/11 07:55:14;;;;;;;7.18;2.13;;;;;;;14.35;57.99;101135.50;10468550;28;20535;-72
2022/10/11 08:00:16;;;;;;;9.77;2.38;;;;;;;14.48;58.31;101130.81;10474105;28;20053;-72
2022/10/11 08:05:17;;;;;;;6.72;1.73;;;;;;;14.64;57.80;101141.16;10466710;28;20576;-71
2022/10/11 08:10:19;;;;;;;6.78;1.63;;;;;;;14.78;58.20;101136.47;10426522;28;20566;-70
2022/10/11 08:15:20;;;;;;;8.13;1.60;;;;;;;14.95;57.91;101140.38;10406705;28;20056;-73
2022/10/11 08:20:22;;;;;;;10.13;2.15;;;;;;;15.17;57.32;101147.47;10423377;28;20575;-70
2022/10/11 08:25:23;;;;;;;9.18;2.78;;;;;;;15.39;56.76;101149.16;10408748;28;20053;-71
2022/10/11 08:30:25;;;;;;;9.38;2.42;;;;;;;15.54;56.91;101142.44;10404687;28;20062;-70
2022/10/11 08:35:26;;;;;;;10.40;2.03;;;;;;;15.80;56.00;101149.22;10403632;28;20044;-68
2022/10/11 08:40:28;;;;;;;9.07;2.50;;;;;;;16.13;54.89;101153.41;10420006;28;20057;-72
2022/10/11 08:45:43;;;;;;;9.75;1.85;;;;;;;16.51;53.99;101143.69;10407152;28;20056;-71
2022/10/11 08:50:50;;;;;;;8.68;2.08;;;;;;;16.91;52.32;101145.41;10414902;28;20056;-69
2022/10/11 08:55:53;;;;;;;5.85;1.67;;;;;;;17.35;51.57;101146.75;10404028;28;20053;-72
2022/10/11 09:00:56;;;;;;;5.88;1.42;;;;;;;17.54;50.74;101154.75;10417781;28;20053;-72
2022/10/11 09:06:11;;;;;;;6.60;1.63;;;;;;;17.90;50.20;101149.53;10420212;28;20064;-71
2022/10/11 09:11:31;;;;;;;7.53;1.63;;;;;;;18.05;49.10;101152.59;10420397;28;21172;-71
2022/10/11 09:16:45;;;;;;;4.97;1.77;;;;;;;18.47;47.83;101151.19;10418642;28;20194;-68
2022/10/11 09:22:04;;;;;;;;;;;;;;;18.88;46.93;101155.09;10406494;28;20041;-70
2022/10/11 09:27:19;;;;;;;7.55;2.47;;;;;;;19.21;45.40;101143.72;10420472;28;20310;-69
2022/10/11 09:32:41;;;;;;;5.00;2.28;;;;;;;18.94;46.57;101142.84;10408295;28;20049;-69
2022/10/11 09:37:51;;;;;;;7.85;1.77;;;;;;;19.58;45.35;101137.19;10397142;28;20041;-69
2022/10/11 09:42:54;;;;;;;9.57;2.38;;;;;;;20.11;43.58;101141.47;10381711;28;20276;-70
2022/10/11 09:47:57;;;;;;;8.63;2.03;;;;;;;21.55;40.94;101133.91;10379981;28;20097;-69
2022/10/11 09:53:06;;;;;;;6.20;1.58;;;;;;;24.30;35.06;101134.72;10383077;28;20073;-70
2022/10/11 09:58:30;;;;;;;5.93;1.40;;;;;;;26.16;32.73;101128.13;10387655;28;21181;-70
2022/10/11 10:03:37;;;;;;;4.95;1.45;;;;;;;26.97;30.61;101135.38;10398826;28;20547;-71
2022/10/11 10:08:38;;;;;;;5.18;1.52;;;;;;;26.14;30.74;101135.69;10389365;28;20049;-70
2022/10/11 10:13:44;;;;;;;9.30;2.00;;;;;;;25.87;30.86;101121.09;10390153;28;20052;-70
2022/10/11 10:19:02;;;;;;;10.50;1.90;;;;;;;26.34;30.45;101130.25;10403497;28;20049;-70
2022/10/11 10:24:16;;;;;;;4.10;1.55;;;;;;;28.04;28.36;101117.91;10410743;28;20040;-74
2022/10/11 10:29:19;;;;;;;4.93;1.45;;;;;;;30.49;24.34;101122.22;10408177;28;20048;-71
2022/10/11 10:34:27;;;;;;;5.57;1.60;;;;;;;32.01;23.33;101111.38;10422259;28;20278;-72
2022/10/11 10:39:40;;;;;;;4.18;1.60;;;;;;;32.69;21.09;101106.00;10398674;28;20044;-71
2022/10/11 10:44:44;;;;;;;4.05;1.00;;;;;;;34.22;19.82;101115.78;10417441;28;20037;-71
2022/10/11 10:49:56;;;;;;;5.07;1.27;;;;;;;34.22;19.69;101111.06;10391911;28;20055;-70
2022/10/11 10:55:19;;;;;;;4.22;1.50;;;;;;;33.69;20.43;101113.50;10413195;28;20051;-70
2022/10/11 11:00:22;;;;;;;3.97;1.42;;;;;;;35.52;18.24;101110.94;10409618;28;20121;-72
2022/10/11 11:05:42;;;;;;;4.95;1.23;;;;;;;34.42;18.98;101102.16;10394993;28;20036;-70
2022/10/11 11:10:54;;;;;;;3.93;1.40;;;;;;;34.98;18.84;101112.00;10367421;28;20045;-74
2022/10/11 11:16:17;;;;;;;4.35;1.70;;;;;;;35.79;17.32;101105.25;10372764;28;20072;-72
2022/10/11 11:21:41;;;;;;;5.88;1.38;;;;;;;37.31;16.96;101101.13;10373590;28;20041;-72
2022/10/11 11:27:02;;;;;;;5.75;1.60;;;;;;;37.96;14.80;101089.16;10394291;28;20800;-74
2022/10/11 11:32:16;;;;;;;4.63;1.45;;;;;;;39.81;14.50;101092.06;10394648;28;20400;-74
2022/10/11 11:37:37;;;;;;;4.35;1.30;;;;;;;39.54;13.46;101082.38;10400255;28;20372;-74
2022/10/11 11:42:45;;;;;;;4.90;1.10;;;;;;;41.30;12.53;101072.75;10397019;28;20041;-72
2022/10/11 11:48:00;;;;;;;3.30;1.05;;;;;;;41.79;11.99;101059.97;10418767;28;20057;-73
2022/10/11 11:53:06;;;;;;;4.35;1.10;;;;;;;42.23;11.10;101065.91;10402538;28;20045;-75
2022/10/11 11:58:40;;;;;;;3.90;1.02;;;;;;;42.53;10.69;101061.50;10374307;28;20056;-73
2022/10/11 12:03:48;;;;;;;4.53;1.30;;;;;;;43.89;10.49;101058.13;10372699;28;20065;-73
2022/10/11 12:09:21;;;;;;;4.80;1.00;;;;;;;44.23;9.04;101050.88;10373747;28;20056;-72
2022/10/11 12:14:33;;;;;;;3.17;0.98;;;;;;;43.90;10.06;101045.78;10369357;28;20059;-72
2022/10/11 12:19:38;;;;;;;2.75;0.73;;;;;;;43.30;9.15;101044.53;10373516;28;20667;-73
2022/10/11 12:25:00;;;;;;;4.20;1.40;;;;;;;44.03;9.76;101037.50;10372059;28;20053;-72
2022/10/11 12:30:04;;;;;;;2.97;1.02;;;;;;;43.99;9.39;101026.16;10369004;28;20481;-73
2022/10/11 12:35:30;;;;;;;3.55;0.80;;;;;;;42.33;9.57;101006.91;10407751;28;20045;-74
2022/10/11 12:40:35;;;;;;;5.63;1.50;;;;;;;41.05;11.80;101007.09;10376206;28;20058;-72
2022/10/11 12:45:36;;;;;;;4.70;0.82;;;;;;;40.30;11.83;100995.97;10399030;28;20049;-74
2022/10/11 12:50:50;;;;;;;2.67;1.00;;;;;;;40.95;11.43;101002.59;10393085;28;20311;-73
2022/10/11 12:56:15;;;;;;;3.22;1.02;;;;;;;39.67;12.15;100988.94;10398240;28;20061;-75
2022/10/11 13:01:24;;;;;;;3.65;0.70;;;;;;;38.94;12.66;100993.78;10394453;28;20041;-71
2022/10/11 13:06:32;;;;;;;4.20;1.00;;;;;;;38.24;13.27;100995.88;10400290;28;20052;-72
2022/10/11 13:11:39;;;;;;;3.90;1.05;;;;;;;38.70;12.22;100991.81;10404582;28;20775;-72
2022/10/11 13:16:49;;;;;;;5.43;1.20;;;;;;;38.42;11.79;100985.13;10395453;28;20064;-73
2022/10/11 13:21:54;;;;;;;3.10;1.15;;;;;;;37.80;13.62;100982.88;10399131;28;20053;-74
2022/10/11 13:26:56;;;;;;;2.92;0.93;;;;;;;37.83;13.61;100983.13;10402142;28;20053;-74
2022/10/11 13:32:02;;;;;;;1.83;0.52;;;;;;;38.25;13.19;100982.81;10390449;28;20063;-73
2022/10/11 13:37:04;;;;;;;3.33;1.05;;;;;;;37.43;13.85;100982.25;10433466;28;20063;-73
2022/10/11 13:42:10;;;;;;;3.50;0.98;;;;;;;37.82;13.06;100983.44;10398966;28;20061;-74
2022/10/11 13:47:14;;;;;;;4.50;1.92;;;;;;;38.16;12.41;100974.25;10432440;28;20048;-73
2022/10/11 13:52:18;;;;;;;2.35;0.80;;;;;;;38.77;12.08;100981.16;10391913;28;20056;-75
2022/10/11 13:57:51;;;;;;;3.60;0.75;;;;;;;40.23;11.58;100973.25;10394523;28;20047;-75
2022/10/11 14:03:10;;;;;;;3.60;0.77;;;;;;;40.68;11.16;100973.50;10392240;28;20045;-73
2022/10/11 14:08:40;;;;;;;3.13;0.80;;;;;;;39.93;11.10;100964.25;10394529;28;20076;-73
2022/10/11 14:13:44;;;;;;;5.32;1.17;;;;;;;37.97;12.70;100963.84;10390193;28;20080;-74
2022/10/11 14:18:45;;;;;;;3.85;1.13;;;;;;;38.44;12.19;100964.25;10374896;28;20563;-73
2022/10/11 14:23:56;;;;;;;2.50;0.70;;;;;;;36.16;13.80;100960.13;10396000;28;20679;-73
2022/10/11 14:28:59;;;;;;;2.47;0.90;;;;;;;34.22;14.74;100961.91;10404385;28;20787;-72
2022/10/11 14:34:02;;;;;;;3.80;1.00;;;;;;;31.41;17.67;100953.06;10404208;28;20557;-73
2022/10/11 14:39:12;;;;;;;4.50;1.00;;;;;;;29.77;19.33;100955.59;10396981;28;20410;-73
2022/10/11 14:44:15;;;;;;;3.88;1.10;;;;;;;27.74;20.99;100961.69;10419958;28;20055;-71
2022/10/11 14:49:19;;;;;;;3.05;0.90;;;;;;;25.39;23.61;100945.59;10420870;28;20053;-71
2022/10/11 14:54:22;;;;;;;5.32;1.20;;;;;;;24.03;26.02;100953.31;10421624;28;20057;-74
2022/10/11 14:59:26;;;;;;;4.85;1.00;;;;;;;23.07;27.64;100957.81;10407494;28;20063;-70
2022/10/11 15:04:28;;;;;;;2.65;0.75;;;;;;;22.29;29.27;100951.00;10423422;28;20037;-70
2022/10/11 15:09:29;;;;;;;3.08;0.95;;;;;;;21.67;30.42;100952.88;10404676;28;20533;-70
2022/10/11 15:14:30;;;;;;;3.42;1.63;;;;;;;21.23;32.14;100961.53;10421544;28;20768;-68
2022/10/11 15:19:32;;;;;;;3.78;0.82;;;;;;;20.83;32.77;100953.41;10418426;28;20053;-71
2022/10/11 15:24:33;;;;;;;4.63;1.13;;;;;;;20.49;34.20;100943.63;10420411;28;20088;-71
2022/10/11 15:29:35;;;;;;;5.18;1.10;;;;;;;20.24;34.62;100943.69;10423959;28;20424;-68
2022/10/11 15:34:36;;;;;;;4.75;1.27;;;;;;;19.92;34.32;100945.38;10384986;28;20713;-68
2022/10/11 15:39:37;;;;;;;5.97;1.77;;;;;;;19.66;35.60;100948.19;10384840;28;20049;-68
2022/10/11 15:44:38;;;;;;;4.25;0.90;;;;;;;19.39;35.25;100942.03;10382030;28;20053;-67
2022/10/11 15:49:40;;;;;;;2.97;0.85;;;;;;;19.32;35.77;100949.13;10396353;28;20076;-70
2022/10/11 15:54:41;;;;;;;6.20;1.42;;;;;;;19.04;37.66;100953.91;10382653;28;20063;-70
2022/10/11 15:59:42;;;;;;;5.05;1.73;;;;;;;18.93;37.48;100951.47;10377318;28;20045;-68
2022/10/11 16:04:44;;;;;;;5.32;1.27;;;;;;;18.72;37.91;100945.47;10378148;28;20049;-69
2022/10/11 16:09:45;;;;;;;6.45;2.28;;;;;;;18.52;38.70;100949.38;10415984;28;20743;-69
2022/10/11 16:14:46;;;;;;;3.30;1.00;;;;;;;18.36;39.16;100955.50;10403059;28;20072;-71
2022/10/11 16:19:49;;;;;;;4.88;1.92;;;;;;;18.15;39.11;100958.53;10420689;28;20040;-73
2022/10/11 16:24:50;;;;;;;5.03;1.77;;;;;;;17.94;39.52;100954.31;10405470;28;20044;-68
2022/10/11 16:29:51;;;;;;;3.58;1.20;;;;;;;17.79;39.86;100962.06;10421794;28;20053;-71
2022/10/11 16:34:53;;;;;;;3.00;1.23;;;;;;;17.49;40.35;100969.50;10424869;28;20044;-71
2022/10/11 16:39:54;;;;;;;6.80;1.40;;;;;;;17.24;40.79;100971.03;10426891;28;20416;-71
2022/10/11 16:44:55;;;;;;;2.72;0.90;;;;;;;17.17;41.99;100972.63;10407626;28;21226;-70
2022/10/11 16:49:58;;;;;;;6.45;1.60;;;;;;;17.03;41.85;100967.75;10429384;28;20040;-71
2022/10/11 16:54:59;;;;;;;2.55;1.40;;;;;;;16.85;42.83;100965.81;10425892;28;20052;-70
2022/10/11 17:00:00;;;;;;;7.18;1.50;;;;;;;16.79;43.19;100977.16;10460452;28;20533;-71
2022/10/11 17:05:02;;;;;;;3.67;1.10;;;;;;;16.64;42.98;100967.88;10389160;28;20053;-70
2022/10/11 17:10:04;;;;;;;4.93;1.25;;;;;;;16.53;43.88;100972.41;10379020;28;20056;-72
2022/10/11 17:15:08;;;;;;;5.70;1.60;;;;;;;16.40;44.32;100977.25;10377315;28;20566;-70
2022/10/11 17:20:10;;;;;;;7.13;1.52;;;;;;;16.35;44.64;100974.13;10394649;28;20382;-71
2022/10/11 17:25:11;;;;;;;4.43;1.30;;;;;;;16.15;44.86;100976.84;10391706;28;20049;-70
2022/10/11 17:30:12;;;;;;;7.53;2.60;;;;;;;16.10;46.20;100976.44;10387773;28;20534;-72
2022/10/11 17:35:14;;;;;;;7.43;3.60;;;;;;;16.04;46.11;100971.63;10382276;28;20475;-71
2022/10/11 17:40:15;;;;;;;8.18;4.22;;;;;;;15.86;45.50;100969.63;10378421;28;20060;-71
2022/10/11 17:45:18;;;;;;;6.97;3.97;;;;;;;15.68;45.90;100963.25;10375993;28;20049;-72
2022/10/11 17:50:19;;;;;;;8.77;3.70;;;;;;;15.62;46.78;100966.50;10403320;28;20049;-70
2022/10/11 17:55:20;;;;;;;6.88;2.70;;;;;;;15.50;46.42;100974.66;10417895;28;20059;-70
2022/10/11 18:00:22;;;;;;;4.75;2.25;;;;;;;15.47;46.95;100980.28;10418342;28;20052;-72
2022/10/11 18:05:23;;;;;;;7.18;2.92;;;;;;;15.39;46.67;100977.47;10421782;28;20052;-72
2022/10/11 18:10:24;;;;;;;4.47;2.22;;;;;;;15.31;47.52;100979.97;10426054;28;20048;-75
2022/10/11 18:15:29;;;;;;;6.68;3.03;;;;;;;15.26;47.82;100987.59;10418494;28;20503;-72
2022/10/11 18:20:31;;;;;;;8.60;3.40;;;;;;;15.08;48.07;100988.22;10428063;28;20056;-71
2022/10/11 18:25:33;;;;;;;8.73;4.40;;;;;;;14.94;48.24;100991.28;10406438;28;20056;-69
2022/10/11 18:30:34;;;;;;;5.35;2.38;;;;;;;14.80;49.79;100985.28;10430504;28;20059;-70
2022/10/11 18:35:36;;;;;;;6.25;2.67;;;;;;;14.69;49.20;100988.03;10434897;28;20052;-71
2022/10/11 18:40:38;;;;;;;5.25;2.13;;;;;;;14.67;57.05;100987.31;10423822;28;20123;-70
2022/10/11 18:45:45;;;;;;;5.32;1.67;;;;;;;15.11;53.30;100989.78;10420390;28;20793;-71
2022/10/11 18:50:46;;;;;;;5.00;1.77;;;;;;;15.27;51.90;100991.97;10408488;28;20048;-72
2022/10/11 18:55:47;;;;;;;4.65;2.00;;;;;;;15.16;50.28;100993.75;10418784;28;20084;-71
2022/10/11 19:00:48;;;;;;;8.05;2.42;;;;;;;14.85;50.29;100985.72;10420589;28;20063;-72
2022/10/11 19:05:50;;;;;;;7.20;2.75;;;;;;;14.63;50.87;100981.34;10444175;28;20052;-71
2022/10/11 19:10:51;;;;;;;5.10;2.30;;;;;;;14.48;52.08;100982.66;10422123;28;20431;-72
2022/10/11 19:15:52;;;;;;;5.88;2.13;;;;;;;14.30;52.79;100977.03;10422081;28;20048;-72
2022/10/11 19:21:22;;;;;;;4.25;2.42;;;;;;;14.23;52.83;100989.22;10392080;28;20072;-70
2022/10/11 19:26:37;;;;;;;4.95;1.65;;;;;;;14.13;53.58;100981.97;10295147;28;20064;-70
2022/10/11 19:31:44;;;;;;;6.30;2.97;;;;;;;14.01;54.06;100983.00;10403234;28;20134;-70
2022/10/11 19:36:49;;;;;;;6.75;2.33;;;;;;;13.91;54.20;100984.75;10384521;28;20159;-71
2022/10/11 19:41:52;;;;;;;4.90;2.65;;;;;;;13.90;53.68;100983.03;10379735;28;20157;-72
2022/10/11 19:46:53;;;;;;;5.28;2.22;;;;;;;13.81;54.04;100979.34;10360696;28;20049;-71
2022/10/11 19:51:55;;;;;;;8.02;2.15;;;;;;;13.74;54.78;100989.66;10407557;28;20070;-74
2022/10/11 19:56:56;;;;;;;7.68;2.55;;;;;;;13.66;54.73;100978.78;10401057;28;21397;-71
2022/10/11 20:02:00;;;;;;;4.85;2.13;;;;;;;13.67;54.61;100988.47;10341705;28;20064;-72
2022/10/11 20:07:02;;;;;;;6.88;3.10;;;;;;;13.59;54.80;100985.59;10379916;28;20053;-71
2022/10/11 20:12:03;;;;;;;8.30;2.80;;;;;;;13.56;54.85;100993.88;10362673;28;20657;-72
2022/10/11 20:17:04;;;;;;;8.13;2.20;;;;;;;13.47;55.05;100989.28;10360840;28;20059;-72
2022/10/11 20:22:06;;;;;;;6.63;2.25;;;;;;;13.46;54.00;100990.22;10392651;28;20049;-72
2022/10/11 20:27:10;;;;;;;4.82;2.13;;;;;;;13.49;54.92;100982.81;10383990;28;20053;-73
2022/10/11 20:32:12;;;;;;;6.43;2.33;;;;;;;13.40;54.36;100976.38;10398760;28;20049;-72
2022/10/11 20:37:13;;;;;;;5.70;2.20;;;;;;;13.21;54.67;100977.00;10384412;28;20049;-70
2022/10/11 20:42:14;;;;;;;5.13;2.20;;;;;;;13.25;54.70;100980.25;10333980;28;20056;-70
2022/10/11 20:47:16;;;;;;;5.18;2.00;;;;;;;13.12;55.72;100982.22;10363370;28;20048;-74
2022/10/11 20:52:17;;;;;;;3.83;2.20;;;;;;;13.07;55.47;100994.09;10394301;28;20053;-72
2022/10/11 20:57:18;;;;;;;6.40;2.35;;;;;;;13.12;55.30;100987.56;10390342;28;20044;-72
2022/10/11 21:02:20;;;;;;;5.45;1.88;;;;;;;12.98;55.07;100985.97;10397782;28;20241;-72
2022/10/11 21:07:22;;;;;;;6.63;2.28;;;;;;;12.90;55.64;100989.25;10401978;28;20060;-73
2022/10/11 21:12:23;;;;;;;5.65;2.33;;;;;;;12.70;55.34;100989.00;10404422;28;20045;-71
2022/10/11 21:17:24;;;;;;;5.45;3.30;;;;;;;12.68;55.64;100985.56;10409997;28;20065;-70
2022/10/11 21:22:26;;;;;;;7.55;2.42;;;;;;;12.72;55.41;101000.41;10405859;28;20054;-69
2022/10/11 21:27:27;;;;;;;7.88;2.67;;;;;;;12.63;56.31;100993.13;10402133;28;20046;-71
2022/10/11 21:32:28;;;;;;;4.80;2.25;;;;;;;12.56;56.16;100991.88;10404470;28;20050;-70
2022/10/11 21:37:30;;;;;;;9.40;2.58;;;;;;;12.46;56.38;100980.19;10401784;28;20049;-71
2022/10/11 21:42:31;;;;;;;7.70;2.65;;;;;;;12.41;56.41;100985.91;10402068;28;20297;-75
2022/10/11 21:47:33;;;;;;;5.13;1.80;;;;;;;12.42;56.35;100979.59;10417466;28;20053;-71
2022/10/11 21:52:39;;;;;;;5.68;2.50;;;;;;;12.38;56.99;100981.66;10416177;28;20067;-72
2022/10/11 21:57:42;;;;;;;9.40;2.83;;;;;;;12.48;57.07;100984.47;10414837;28;20236;-70
2022/10/11 22:02:43;;;;;;;5.22;2.50;;;;;;;12.46;56.18;100980.19;10394050;28;20054;-72
2022/10/11 22:07:44;;;;;;;6.00;2.13;;;;;;;12.37;57.03;100977.28;10404857;28;20057;-70
2022/10/11 22:12:46;;;;;;;6.80;2.63;;;;;;;12.35;56.87;100981.03;10401771;28;20044;-70
2022/10/11 22:17:47;;;;;;;5.22;2.20;;;;;;;12.29;56.70;100985.00;10403292;28;20052;-70
2022/10/11 22:22:48;;;;;;;5.68;2.17;;;;;;;12.24;57.22;100983.69;10401777;28;20072;-71
2022/10/11 22:27:50;;;;;;;6.65;2.60;;;;;;;12.06;57.81;100975.25;10437521;28;20067;-71
2022/10/11 22:32:51;;;;;;;9.43;3.08;;;;;;;12.05;57.89;100978.88;10421905;28;20057;-70
2022/10/11 22:37:52;;;;;;;6.75;2.35;;;;;;;12.05;58.06;100970.88;10401607;28;20051;-75
2022/10/11 22:42:54;;;;;;;7.32;2.50;;;;;;;12.01;59.10;100980.94;10438459;28;20053;-71
2022/10/11 22:47:55;;;;;;;6.75;2.38;;;;;;;11.94;58.74;100969.84;10433344;28;20133;-71
2022/10/11 22:52:56;;;;;;;6.57;2.83;;;;;;;11.92;59.08;100960.22;10405209;28;20060;-71
2022/10/11 22:57:57;;;;;;;6.20;2.17;;;;;;;11.83;58.74;100957.28;10404455;28;20068;-69
2022/10/11 23:02:59;;;;;;;5.45;2.10;;;;;;;11.99;59.16;100962.38;10400548;28;20074;-71
2022/10/11 23:08:00;;;;;;;5.10;2.30;;;;;;;11.88;58.95;100954.28;10401534;28;20060;-71
2022/10/11 23:13:02;;;;;;;8.43;2.38;;;;;;;11.79;58.82;100954.97;10399902;28;20049;-70
2022/10/11 23:18:03;;;;;;;7.00;2.22;;;;;;;11.73;58.91;100953.59;10400091;28;20075;-71
2022/10/11 23:23:05;;;;;;;6.15;2.10;;;;;;;11.64;58.92;100955.13;10407038;28;20052;-70